createdAt,value
2023-05-11T00:02:34.375Z,22.9
2023-05-11T00:08:11.519Z,22.8
2023-05-11T00:13:47.640Z,22.8
2023-05-11T00:19:09.106Z,22.8
2023-05-11T00:24:45.507Z,22.7
2023-05-11T00:35:43.889Z,22.6
2023-05-11T00:41:23.216Z,22.6
2023-05-11T00:46:59.267Z,22.5
2023-05-11T00:52:35.815Z,22.5
2023-05-11T00:58:11.581Z,22.4
2023-05-11T01:03:48.511Z,22.4
2023-05-11T01:09:24.880Z,22.4
2023-05-11T01:15:17.022Z,22.3
2023-05-11T01:20:53.485Z,22.3
2023-05-11T01:26:29.381Z,22.2
2023-05-11T01:32:21.283Z,22.2
2023-05-11T01:38:15.011Z,22.1
2023-05-11T01:44:06.063Z,22.1
2023-05-11T01:55:34.421Z,22
2023-05-11T02:01:25.880Z,22
2023-05-11T02:07:18.146Z,21.9
2023-05-11T02:13:09.517Z,21.9
2023-05-11T02:19:02.055Z,21.9
2023-05-11T02:24:53.498Z,21.8
2023-05-11T02:30:29.882Z,21.8
2023-05-11T02:36:21.927Z,21.8
2023-05-11T02:42:14.391Z,21.8
2023-05-11T02:48:06.320Z,21.7
2023-05-11T02:53:58.532Z,21.7
2023-05-11T02:59:50.339Z,21.7
2023-05-11T03:05:44.635Z,21.6
2023-05-11T03:11:38.181Z,21.6
2023-05-11T03:17:29.971Z,21.6
2023-05-11T03:23:21.953Z,21.5
2023-05-11T03:29:13.403Z,21.5
2023-05-11T03:35:08.685Z,21.5
2023-05-11T03:40:59.654Z,21.4
2023-05-11T03:46:53.562Z,21.4
2023-05-11T03:52:46.018Z,21.4
2023-05-11T03:58:37.228Z,21.4
2023-05-11T04:04:30.321Z,21.4
2023-05-11T04:10:22.237Z,21.3
2023-05-11T04:16:13.753Z,21.3
2023-05-11T04:22:05.957Z,21.3
2023-05-11T04:27:57.720Z,21.3
2023-05-11T04:33:48.688Z,21.3
2023-05-11T04:39:40.933Z,21.3
2023-05-11T04:45:31.892Z,21.2
2023-05-11T05:13:51.039Z,21.1
2023-05-11T05:19:42.388Z,21.1
2023-05-11T05:25:33.937Z,21.1
2023-05-11T05:31:26.298Z,21.1
2023-05-11T05:37:02.857Z,21
2023-05-11T05:42:38.830Z,21
2023-05-11T05:48:32.671Z,21
2023-05-11T05:54:24.186Z,20.9
2023-05-11T06:00:17.756Z,20.9
2023-05-11T06:06:13.307Z,20.9
2023-05-11T06:12:07.821Z,20.9
2023-05-11T06:17:59.660Z,20.9
2023-05-11T06:23:51.111Z,20.9
2023-05-11T06:35:07.593Z,20.9
2023-05-11T06:40:44.315Z,20.9
2023-05-11T06:46:36.793Z,20.8
2023-05-11T06:52:32.249Z,20.8
2023-05-11T06:58:23.585Z,20.8
2023-05-11T07:04:15.844Z,20.8
2023-05-11T07:10:08.108Z,20.8
2023-05-11T07:16:00.462Z,20.8
2023-05-11T07:21:37.581Z,20.8
2023-05-11T07:26:58.357Z,20.8
2023-05-11T07:32:35.920Z,20.8
2023-05-11T07:38:12.726Z,20.8
2023-05-11T07:44:07.369Z,20.8
2023-05-11T07:50:33.545Z,20.8
2023-05-11T07:56:10.349Z,20.8
2023-05-11T08:02:02.571Z,20.8
2023-05-11T08:07:57.902Z,20.8
2023-05-11T08:13:34.942Z,20.7
2023-05-11T08:19:27.271Z,20.7
2023-05-11T08:25:22.302Z,20.7
2023-05-11T08:31:01.276Z,20.7
2023-05-11T08:36:49.317Z,20.7
2023-05-11T08:42:42.526Z,20.7
2023-05-11T08:48:53.288Z,20.7
2023-05-11T08:54:45.081Z,20.7
2023-05-11T09:00:37.837Z,20.6
2023-05-11T09:06:30.610Z,20.6
2023-05-11T09:12:08.877Z,20.6
2023-05-11T09:18:23.994Z,20.6
2023-05-11T09:23:45.233Z,20.7
2023-05-11T09:29:52.356Z,20.6
2023-05-11T09:35:32.831Z,20.6
2023-05-11T09:47:29.972Z,20.6
2023-05-11T09:53:28.342Z,20.6
2023-05-11T09:59:04.149Z,20.6
2023-05-11T10:10:33.845Z,20.6
2023-05-11T10:16:14.065Z,20.6
2023-05-11T10:22:06.652Z,20.6
2023-05-11T10:28:00.273Z,20.6
2023-05-11T10:33:52.649Z,20.6
2023-05-11T10:39:43.761Z,20.6
2023-05-11T10:45:36.244Z,20.6
2023-05-11T10:51:32.754Z,20.6
2023-05-11T10:57:25.691Z,20.6
2023-05-11T11:03:18.329Z,20.6
2023-05-11T11:09:09.934Z,20.6
2023-05-11T11:15:02.509Z,20.6
2023-05-11T11:20:55.474Z,20.6
2023-05-11T11:26:46.101Z,20.6
2023-05-11T11:32:37.577Z,20.6
2023-05-11T11:38:29.520Z,20.6
2023-05-11T11:44:43.598Z,20.6
2023-05-11T11:50:35.940Z,20.6
2023-05-11T11:56:28.346Z,20.6
2023-05-11T12:02:21.423Z,20.6
2023-05-11T12:08:14.921Z,20.6
2023-05-11T12:14:06.852Z,20.6
2023-05-11T12:19:58.745Z,20.6
2023-05-11T12:25:50.322Z,20.6
2023-05-11T12:31:41.974Z,20.5
2023-05-11T12:37:33.593Z,20.5
2023-05-11T12:43:24.586Z,20.5
2023-05-11T12:49:16.778Z,20.5
2023-05-11T12:55:08.280Z,20.5
2023-05-11T13:00:59.614Z,20.5
2023-05-11T13:06:36.684Z,20.5
2023-05-11T13:12:29.663Z,20.5
2023-05-11T13:18:23.386Z,20.5
2023-05-11T13:24:14.736Z,20.5
2023-05-11T13:30:20.011Z,20.4
2023-05-11T13:35:56.678Z,20.4
2023-05-11T13:41:47.795Z,20.4
2023-05-11T13:47:41.526Z,20.4
2023-05-11T13:53:35.166Z,20.4
2023-05-11T13:59:26.643Z,20.4
2023-05-11T14:05:38.630Z,20.4
2023-05-11T14:11:43.617Z,20.4
2023-05-11T14:17:36.596Z,20.4
2023-05-11T14:29:31.680Z,20.4
2023-05-11T14:35:25.772Z,20.4
2023-05-11T14:41:18.211Z,20.4
2023-05-11T14:47:10.574Z,20.4
2023-05-11T14:53:02.459Z,20.4
2023-05-11T14:58:54.886Z,20.3
2023-05-11T15:05:01.973Z,20.3
2023-05-11T15:11:09.996Z,20.3
2023-05-11T15:17:02.686Z,20.3
2023-05-11T15:22:55.766Z,20.3
2023-05-11T15:28:48.190Z,20.3
2023-05-11T15:34:58.363Z,20.3
2023-05-11T15:40:52.300Z,20.3
2023-05-11T15:46:45.494Z,20.3
2023-05-11T15:52:24.813Z,20.3
2023-05-11T15:58:18.250Z,20.3
2023-05-11T16:04:13.933Z,20.3
2023-05-11T16:10:07.480Z,20.3
2023-05-11T16:16:02.394Z,20.3
2023-05-11T16:21:59.188Z,20.3
2023-05-11T16:27:55.238Z,20.3
2023-05-11T16:34:04.438Z,20.2
2023-05-11T16:40:01.324Z,20.2
2023-05-11T16:45:55.845Z,20.2
2023-05-11T16:51:54.620Z,20.3
2023-05-11T16:57:54.918Z,20.2
2023-05-11T17:03:58.003Z,20.2
2023-05-11T17:09:57.986Z,20.2
2023-05-11T17:15:58.899Z,20.2
2023-05-11T17:21:59.746Z,20.2
2023-05-11T17:28:12.241Z,20.2
2023-05-11T17:34:45.683Z,20.2
2023-05-11T17:40:55.488Z,20.2
2023-05-11T17:46:57.532Z,20.2
2023-05-11T17:52:58.225Z,20.1
2023-05-11T17:58:59.172Z,20.1
2023-05-11T18:05:00.601Z,20.1
2023-05-11T18:11:15.798Z,20.1
2023-05-11T18:23:05.423Z,20.1
2023-05-11T18:29:05.270Z,20.1
2023-05-11T18:34:50.168Z,20.1
2023-05-11T18:40:51.961Z,20.1
2023-05-11T18:46:51.655Z,20.1
2023-05-11T18:52:55.624Z,20.1
2023-05-11T18:59:11.365Z,20.1
2023-05-11T19:05:23.806Z,20.1
2023-05-11T19:11:27.442Z,20
2023-05-11T19:17:29.367Z,20.1
2023-05-11T19:23:33.506Z,20.1
2023-05-11T19:29:42.999Z,20
2023-05-11T19:35:45.442Z,20
2023-05-11T19:42:35.847Z,20
2023-05-11T19:48:38.749Z,20
2023-05-11T19:54:43.459Z,20
2023-05-11T20:04:42.591Z,20
2023-05-11T20:10:46.713Z,19.9
2023-05-11T20:16:47.528Z,19.9
2023-05-11T20:22:48.854Z,19.9
2023-05-11T20:28:50.323Z,19.9
2023-05-11T20:35:05.036Z,19.9
2023-05-11T20:41:04.116Z,19.9
2023-05-11T20:47:04.422Z,19.9
2023-05-11T20:53:23.977Z,19.9
2023-05-11T21:05:32.626Z,19.9
2023-05-11T21:11:30.487Z,19.9
2023-05-11T21:17:28.931Z,19.9
2023-05-11T21:23:25.766Z,19.9
2023-05-11T21:29:05.338Z,19.9
2023-05-11T21:40:05.985Z,19.9
2023-05-11T21:51:02.523Z,19.8
2023-05-11T21:56:38.818Z,19.8
2023-05-11T22:02:15.842Z,19.8
2023-05-11T22:07:55.814Z,19.8
2023-05-11T22:13:36.993Z,19.8
2023-05-11T22:19:12.874Z,19.8
2023-05-11T22:24:48.967Z,19.8
2023-05-11T22:30:09.670Z,19.8
2023-05-11T22:36:01.552Z,19.8
2023-05-11T22:41:06.910Z,19.8
2023-05-11T22:46:28.167Z,19.8
2023-05-11T22:51:48.719Z,19.8
2023-05-11T22:57:09.545Z,19.8
2023-05-11T23:02:31.914Z,19.8
2023-05-11T23:07:53.030Z,19.8
2023-05-11T23:13:28.924Z,19.8
2023-05-11T23:18:50.084Z,19.8
2023-05-11T23:29:15.809Z,19.7
2023-05-11T23:34:37.816Z,19.8
2023-05-11T23:39:58.846Z,19.7
2023-05-11T23:45:20.191Z,19.7
2023-05-11T23:50:56.729Z,19.7
2023-05-11T23:56:17.425Z,19.7
